Terminal Aerodrome Forecast
Issued by NWS

Home | Current Version | Previous Version | Text Only | Print | Product List | Glossary On
Versions: 1 2 3 4 5 6 7 8 9 10 11 12 13 14 15 16 17 18 19 20
000
FTUS43 KDTX 200520
TAFYIP
TAF
KYIP 200520Z 2006/2106 VRB03KT 3SM BR BKN025 OVC045
      TEMPO 2009/2013 OVC005
     FM201400 15004KT P6SM OVC015
     FM201600 17006KT P6SM BKN028
     FM202100 19006KT P6SM SCT030
     FM210000 VRB03KT P6SM SKC=

USA.gov is the U.S. government's official web portal to all federal, state and local government web resources and services.